createdAt,value
2023-04-23T00:02:28.729Z,40.20
2023-04-23T00:05:09.087Z,40.30
2023-04-23T00:08:27.977Z,44.20
2023-04-23T00:11:06.362Z,37.70
2023-04-23T00:13:51.969Z,41.00
2023-04-23T00:16:27.330Z,35.20
2023-04-23T00:19:09.309Z,34.90
2023-04-23T00:21:49.971Z,33.10
2023-04-23T00:24:26.222Z,34.90
2023-04-23T00:27:08.735Z,31.80
2023-04-23T00:29:46.492Z,33.00
2023-04-23T00:32:18.705Z,32.60
2023-04-23T00:34:58.426Z,28.90
2023-04-23T00:37:33.318Z,29.60
2023-04-23T00:40:23.710Z,29.20
2023-04-23T00:43:00.199Z,28.70
2023-04-23T00:45:30.088Z,31.50
2023-04-23T00:48:14.885Z,30.70
2023-04-23T00:53:36.267Z,32.10
2023-04-23T00:56:13.255Z,32.90
2023-04-23T00:58:43.402Z,33.90
2023-04-23T01:01:20.676Z,29.80
2023-04-23T01:03:52.903Z,28.70
2023-04-23T01:06:25.182Z,26.30
2023-04-23T01:08:59.191Z,28.10
2023-04-23T01:11:43.255Z,32.10
2023-04-23T01:14:13.681Z,33.10
2023-04-23T01:16:53.820Z,32.60
2023-04-23T01:19:33.860Z,30.10
2023-04-23T01:25:07.064Z,29.20
2023-04-23T01:27:41.397Z,34.10
2023-04-23T01:30:15.269Z,38.60
2023-04-23T01:32:51.217Z,29.90
2023-04-23T01:35:31.767Z,28.30
2023-04-23T01:38:15.138Z,28.70
2023-04-23T01:40:48.747Z,27.10
2023-04-23T01:43:39.216Z,31.70
2023-04-23T01:46:15.357Z,27.70
2023-04-23T01:48:50.091Z,25.20
2023-04-23T01:51:25.117Z,32.80
2023-04-23T01:56:30.913Z,25.00
2023-04-23T01:59:09.382Z,23.70
2023-04-23T02:01:46.861Z,22.20
2023-04-23T02:04:22.822Z,24.10
2023-04-23T02:07:11.211Z,25.80
2023-04-23T02:09:46.412Z,23.60
2023-04-23T02:12:31.802Z,23.60
2023-04-23T02:15:12.519Z,28.10
2023-04-23T02:17:52.659Z,21.40
2023-04-23T02:20:39.968Z,22.00
2023-04-23T02:23:31.364Z,20.60
2023-04-23T02:26:11.029Z,21.00
2023-04-23T02:28:59.332Z,22.10
2023-04-23T02:31:47.961Z,22.40
2023-04-23T02:34:22.893Z,25.40
2023-04-23T02:37:08.981Z,19.60
2023-04-23T02:39:43.176Z,24.70
2023-04-23T02:42:15.216Z,20.20
2023-04-23T02:44:56.480Z,17.60
2023-04-23T02:47:34.878Z,16.70
2023-04-23T02:50:10.064Z,21.30
2023-04-23T02:52:42.434Z,21.00
2023-04-23T02:55:18.722Z,19.40
2023-04-23T02:57:59.750Z,22.70
2023-04-23T03:00:36.357Z,18.80
2023-04-23T03:03:12.357Z,19.00
2023-04-23T03:05:48.273Z,21.00
2023-04-23T03:08:18.088Z,18.60
2023-04-23T03:10:55.593Z,17.90
2023-04-23T03:13:28.564Z,18.00
2023-04-23T03:16:06.777Z,20.00
2023-04-23T03:18:37.197Z,16.20
2023-04-23T03:21:10.417Z,18.60
2023-04-23T03:23:45.823Z,17.00
2023-04-23T03:26:23.088Z,19.50
2023-04-23T03:28:57.681Z,19.60
2023-04-23T03:31:32.932Z,22.80
2023-04-23T03:34:05.466Z,17.00
2023-04-23T03:36:36.532Z,19.40
2023-04-23T03:39:08.830Z,19.10
2023-04-23T03:41:57.318Z,18.90
2023-04-23T03:44:44.298Z,22.10
2023-04-23T03:47:18.724Z,22.10
2023-04-23T03:49:53.865Z,23.10
2023-04-23T03:52:33.015Z,22.70
2023-04-23T03:55:06.699Z,22.80
2023-04-23T03:57:45.061Z,35.40
2023-04-23T04:00:42.447Z,30.20
2023-04-23T04:03:12.802Z,22.60
2023-04-23T04:05:48.953Z,21.50
2023-04-23T04:08:21.250Z,26.70
2023-04-23T04:10:56.181Z,24.60
2023-04-23T04:13:28.499Z,21.90
2023-04-23T04:16:05.192Z,21.10
2023-04-23T04:18:40.230Z,20.40
2023-04-23T04:21:12.622Z,20.50
2023-04-23T04:23:49.110Z,24.70
2023-04-23T04:26:25.163Z,21.70
2023-04-23T04:29:01.192Z,18.40
2023-04-23T04:31:33.550Z,24.50
2023-04-23T04:34:09.138Z,25.00
2023-04-23T04:37:06.594Z,24.90
2023-04-23T04:39:40.039Z,24.80
2023-04-23T04:42:25.247Z,21.60
2023-04-23T04:45:20.994Z,21.40
2023-04-23T04:48:00.689Z,23.70
2023-04-23T04:50:34.368Z,18.90
2023-04-23T04:53:13.692Z,18.50
2023-04-23T04:55:53.079Z,18.40
2023-04-23T04:58:36.448Z,18.20
2023-04-23T05:01:08.424Z,18.10
2023-04-23T05:03:48.408Z,21.70
2023-04-23T05:06:34.483Z,18.00
2023-04-23T05:09:17.234Z,19.00
2023-04-23T05:12:18.258Z,20.00
2023-04-23T05:15:09.471Z,19.60
2023-04-23T05:17:51.631Z,17.60
2023-04-23T05:20:32.842Z,22.10
2023-04-23T05:23:13.633Z,18.60
2023-04-23T05:26:12.947Z,21.30
2023-04-23T05:29:01.645Z,20.50
2023-04-23T05:31:40.655Z,20.00
2023-04-23T05:34:14.366Z,23.30
2023-04-23T05:36:46.402Z,22.80
2023-04-23T05:39:22.951Z,19.30
2023-04-23T05:42:03.078Z,19.10
2023-04-23T05:44:39.695Z,17.40
2023-04-23T05:47:31.709Z,19.30
2023-04-23T05:50:08.581Z,16.50
2023-04-23T05:52:40.884Z,15.40
2023-04-23T05:55:12.283Z,16.70
2023-04-23T05:57:49.537Z,16.70
2023-04-23T06:00:30.662Z,15.30
2023-04-23T06:03:02.932Z,17.40
2023-04-23T06:05:45.363Z,16.60
2023-04-23T06:08:25.811Z,15.30
2023-04-23T06:11:04.899Z,16.60
2023-04-23T06:13:36.794Z,14.90
2023-04-23T06:16:18.962Z,15.10
2023-04-23T06:18:54.217Z,16.20
2023-04-23T06:21:36.778Z,15.70
2023-04-23T06:24:22.651Z,16.70
2023-04-23T06:26:57.865Z,14.80
2023-04-23T06:29:36.272Z,17.70
2023-04-23T06:32:09.375Z,14.40
2023-04-23T06:35:00.294Z,18.20
2023-04-23T06:37:35.057Z,12.10
2023-04-23T06:40:10.798Z,15.30
2023-04-23T06:42:44.166Z,13.30
2023-04-23T06:45:42.685Z,16.00
2023-04-23T06:48:18.827Z,14.40
2023-04-23T06:50:51.337Z,14.90
2023-04-23T06:53:41.206Z,14.00
2023-04-23T06:56:16.305Z,14.10
2023-04-23T06:58:49.895Z,13.80
2023-04-23T07:01:24.448Z,13.30
2023-04-23T07:03:56.702Z,18.50
2023-04-23T07:06:29.038Z,15.80
2023-04-23T07:09:09.445Z,14.20
2023-04-23T07:12:17.867Z,12.30
2023-04-23T07:14:49.288Z,14.00
2023-04-23T07:18:22.226Z,11.90
2023-04-23T07:22:31.901Z,15.20
2023-04-23T07:25:28.384Z,12.90
2023-04-23T07:27:58.824Z,13.10
2023-04-23T07:30:29.563Z,13.30
2023-04-23T07:33:12.499Z,15.40
2023-04-23T07:35:55.374Z,12.70
2023-04-23T07:38:31.607Z,12.60
2023-04-23T07:41:13.464Z,23.10
2023-04-23T07:43:57.021Z,16.10
2023-04-23T07:47:02.633Z,13.00
2023-04-23T07:49:38.674Z,18.30
2023-04-23T07:52:21.844Z,11.50
2023-04-23T07:54:56.477Z,15.90
2023-04-23T07:57:33.055Z,10.70
2023-04-23T08:00:24.707Z,13.40
2023-04-23T08:03:31.058Z,8.10
2023-04-23T08:06:27.785Z,8.20
2023-04-23T08:09:57.843Z,11.40
2023-04-23T08:12:49.496Z,10.90
2023-04-23T08:15:24.052Z,12.10
2023-04-23T08:17:55.750Z,10.90
2023-04-23T08:20:30.171Z,12.40
2023-04-23T08:23:00.807Z,11.70
2023-04-23T08:25:35.205Z,9.20
2023-04-23T08:28:06.496Z,7.40
2023-04-23T08:33:21.846Z,10.70
2023-04-23T08:35:52.488Z,10.20
2023-04-23T08:40:58.864Z,10.20
2023-04-23T08:44:01.686Z,14.00
2023-04-23T08:46:45.986Z,7.70
2023-04-23T08:49:19.342Z,11.90
2023-04-23T08:52:11.580Z,10.70
2023-04-23T08:54:57.281Z,8.60
2023-04-23T08:57:40.945Z,12.70
2023-04-23T09:04:51.327Z,8.40
2023-04-23T09:07:36.505Z,25.20
2023-04-23T09:10:23.766Z,13.80
2023-04-23T09:13:30.963Z,8.50
2023-04-23T09:16:07.578Z,9.30
2023-04-23T09:19:00.575Z,9.00
2023-04-23T09:21:40.520Z,11.50
2023-04-23T09:24:46.029Z,14.10
2023-04-23T09:27:53.989Z,9.20
2023-04-23T09:30:42.840Z,11.10
2023-04-23T09:38:32.646Z,10.30
2023-04-23T09:45:09.504Z,8.50
2023-04-23T09:48:17.179Z,9.90
2023-04-23T09:51:27.751Z,10.30
2023-04-23T09:54:47.198Z,12.50
2023-04-23T09:57:56.363Z,9.60
2023-04-23T10:00:26.520Z,5.90
2023-04-23T10:14:15.021Z,10.80
2023-04-23T10:17:04.293Z,6.90
2023-04-23T10:24:29.584Z,28.90
2023-04-23T10:32:36.245Z,23.60
2023-04-23T11:24:17.845Z,8.10
2023-04-23T11:26:58.872Z,4.40
2023-04-23T11:29:41.570Z,8.70
2023-04-23T11:32:45.791Z,10.50
2023-04-23T11:39:56.083Z,10.10
2023-04-23T12:25:05.348Z,7.60
2023-04-23T12:28:23.231Z,6.30
2023-04-23T12:31:16.921Z,3.60
2023-04-23T12:34:22.458Z,7.90
2023-04-23T12:37:09.465Z,8.20
2023-04-23T12:39:49.724Z,7.90
2023-04-23T12:43:08.710Z,10.00
2023-04-23T12:45:50.750Z,6.30
2023-04-23T12:48:28.792Z,5.10
2023-04-23T12:51:01.784Z,5.30
2023-04-23T12:53:39.417Z,7.10
2023-04-23T12:56:21.692Z,9.90
2023-04-23T12:59:10.123Z,7.20
2023-04-23T13:02:11.113Z,10.30
2023-04-23T13:05:05.988Z,6.40
2023-04-23T13:07:55.195Z,4.50
2023-04-23T13:10:37.353Z,9.50
2023-04-23T13:14:11.357Z,5.70
2023-04-23T13:18:12.661Z,6.30
2023-04-23T13:21:04.567Z,8.50
2023-04-23T13:23:51.681Z,5.20
2023-04-23T13:26:24.884Z,6.90
2023-04-23T13:29:27.712Z,6.40
2023-04-23T13:32:52.067Z,5.10
2023-04-23T13:58:44.715Z,5.90
2023-04-23T14:02:02.427Z,5.90
2023-04-23T14:04:47.666Z,17.30
2023-04-23T14:11:01.841Z,18.20
2023-04-23T14:14:41.186Z,7.50
2023-04-23T14:21:49.101Z,5.50
2023-04-23T14:25:49.302Z,8.40
2023-04-23T14:29:23.548Z,8.10
2023-04-23T14:32:50.733Z,15.80
2023-04-23T14:35:50.850Z,15.60
2023-04-23T14:38:46.231Z,12.50
2023-04-23T14:41:42.727Z,7.10
2023-04-23T14:44:33.950Z,10.60
2023-04-23T14:47:39.158Z,7.30
2023-04-23T14:50:14.832Z,13.80
2023-04-23T14:53:02.049Z,10.00
2023-04-23T14:55:45.838Z,11.50
2023-04-23T14:58:23.987Z,9.90
2023-04-23T15:01:33.729Z,22.10
2023-04-23T15:04:22.087Z,10.80
2023-04-23T15:07:02.399Z,10.70
2023-04-23T15:09:42.994Z,9.80
2023-04-23T15:12:44.710Z,11.90
2023-04-23T15:15:44.349Z,10.10
2023-04-23T15:18:25.517Z,10.80
2023-04-23T15:21:00.875Z,13.20
2023-04-23T15:23:43.549Z,9.30
2023-04-23T15:26:26.138Z,11.50
2023-04-23T15:29:11.594Z,10.30
2023-04-23T15:31:49.228Z,8.10
2023-04-23T15:34:23.960Z,6.80
2023-04-23T15:36:56.870Z,8.50
2023-04-23T15:39:38.742Z,7.00
2023-04-23T15:42:20.400Z,7.60
2023-04-23T15:45:00.739Z,8.90
2023-04-23T15:47:38.660Z,8.60
2023-04-23T15:50:16.601Z,6.50
2023-04-23T15:52:55.403Z,9.70
2023-04-23T15:55:38.632Z,8.00
2023-04-23T15:58:24.455Z,7.50
2023-04-23T16:01:05.151Z,5.10
2023-04-23T16:03:57.647Z,8.30
2023-04-23T16:09:57.706Z,5.60
2023-04-23T16:12:35.948Z,4.40
2023-04-23T16:15:13.928Z,4.00
2023-04-23T16:18:25.876Z,5.20
2023-04-23T16:21:21.807Z,4.40
2023-04-23T16:24:16.245Z,5.40
2023-04-23T16:27:11.526Z,11.30
2023-04-23T16:30:13.133Z,11.40
2023-04-23T16:32:48.181Z,12.10
2023-04-23T16:35:28.868Z,7.50
2023-04-23T16:38:12.866Z,8.20
2023-04-23T16:41:05.301Z,5.60
2023-04-23T16:43:41.570Z,4.70
2023-04-23T16:46:25.478Z,5.40
2023-04-23T16:49:05.522Z,9.40
2023-04-23T16:51:43.807Z,7.70
2023-04-23T16:54:23.800Z,10.50
2023-04-23T16:57:14.069Z,4.50
2023-04-23T17:00:23.881Z,6.20
2023-04-23T17:02:58.655Z,5.60
2023-04-23T17:05:37.053Z,17.10
2023-04-23T17:08:10.347Z,9.80
2023-04-23T17:10:57.035Z,12.20
2023-04-23T17:14:18.550Z,9.60
2023-04-23T17:17:17.327Z,7.80
2023-04-23T17:20:19.604Z,5.60
2023-04-23T17:23:13.848Z,7.60
2023-04-23T17:26:14.335Z,7.40
2023-04-23T17:29:00.182Z,6.20
2023-04-23T17:32:02.968Z,7.10
2023-04-23T17:35:12.204Z,7.90
2023-04-23T17:38:00.283Z,8.90
2023-04-23T17:40:39.586Z,10.70
2023-04-23T17:43:14.446Z,11.60
2023-04-23T17:46:01.039Z,12.50
2023-04-23T17:48:55.315Z,11.90
2023-04-23T17:51:42.897Z,16.50
2023-04-23T17:54:27.310Z,13.30
2023-04-23T17:57:11.613Z,11.50
2023-04-23T17:59:53.198Z,10.90
2023-04-23T18:02:28.997Z,13.30
2023-04-23T18:05:09.683Z,10.70
2023-04-23T18:07:45.437Z,12.30
2023-04-23T18:10:31.224Z,12.20
2023-04-23T18:13:15.408Z,10.80
2023-04-23T18:16:08.932Z,11.60
2023-04-23T18:18:50.161Z,11.60
2023-04-23T18:21:23.344Z,13.30
2023-04-23T18:23:58.457Z,13.90
2023-04-23T18:26:37.613Z,12.40
2023-04-23T18:29:11.622Z,11.00
2023-04-23T18:31:43.657Z,12.50
2023-04-23T18:34:27.828Z,10.50
2023-04-23T18:37:08.304Z,11.10
2023-04-23T18:39:41.555Z,39.30
2023-04-23T18:42:23.965Z,24.90
2023-04-23T18:48:38.722Z,11.40
2023-04-23T18:51:17.901Z,13.40
2023-04-23T18:53:52.545Z,13.60
2023-04-23T18:56:42.879Z,15.90
2023-04-23T18:59:24.392Z,15.10
2023-04-23T19:02:34.331Z,12.30
2023-04-23T19:05:17.118Z,15.00
2023-04-23T19:08:29.138Z,11.60
2023-04-23T19:11:06.943Z,9.30
2023-04-23T19:13:56.126Z,10.00
2023-04-23T19:16:43.740Z,10.60
2023-04-23T19:19:58.547Z,9.10
2023-04-23T19:22:59.449Z,8.30
2023-04-23T19:25:49.053Z,9.20
2023-04-23T19:28:35.889Z,8.40
2023-04-23T19:31:28.430Z,10.60
2023-04-23T19:34:27.913Z,13.50
2023-04-23T19:37:14.001Z,10.00
2023-04-23T19:39:57.353Z,11.20
2023-04-23T19:42:55.581Z,12.80
2023-04-23T19:45:49.213Z,18.20
2023-04-23T19:48:40.244Z,13.40
2023-04-23T19:51:51.991Z,12.80
2023-04-23T19:54:24.786Z,39.20
2023-04-23T19:56:58.274Z,29.20
2023-04-23T19:59:32.869Z,30.80
2023-04-23T20:02:02.896Z,32.00
2023-04-23T20:04:33.856Z,37.20
2023-04-23T20:07:22.371Z,31.20
2023-04-23T20:10:26.330Z,35.20
2023-04-23T20:13:31.099Z,33.20
2023-04-23T20:17:03.226Z,36.70
2023-04-23T20:19:38.483Z,40.20
2023-04-23T20:22:17.137Z,35.60
2023-04-23T20:25:01.255Z,36.50
2023-04-23T20:27:33.635Z,37.40
2023-04-23T20:33:13.050Z,38.80
2023-04-23T20:35:54.659Z,32.20
2023-04-23T20:38:33.991Z,29.40
2023-04-23T20:41:06.842Z,27.40
2023-04-23T20:43:42.434Z,27.10
2023-04-23T20:46:17.148Z,26.80
2023-04-23T20:48:55.852Z,30.90
2023-04-23T20:51:29.015Z,32.70
2023-04-23T20:54:03.258Z,34.00
2023-04-23T20:56:41.213Z,33.80
2023-04-23T20:59:13.270Z,29.10
2023-04-23T21:01:55.530Z,25.10
2023-04-23T21:04:29.573Z,25.90
2023-04-23T21:07:21.995Z,27.30
2023-04-23T21:13:01.981Z,29.10
2023-04-23T21:15:54.541Z,29.30
2023-04-23T21:18:28.053Z,26.40
2023-04-23T21:21:09.091Z,25.50
2023-04-23T21:23:45.147Z,22.30
2023-04-23T21:26:21.998Z,24.60
2023-04-23T21:28:55.044Z,27.30
2023-04-23T21:31:50.484Z,22.70
2023-04-23T21:34:23.709Z,25.40
2023-04-23T21:36:54.271Z,25.10
2023-04-23T21:39:43.011Z,22.00
2023-04-23T21:42:22.382Z,24.10
2023-04-23T21:45:09.009Z,27.30
2023-04-23T21:47:44.990Z,29.20
2023-04-23T21:50:20.621Z,29.50
2023-04-23T21:52:53.857Z,27.70
2023-04-23T21:55:32.120Z,27.30
2023-04-23T21:58:17.152Z,26.20
2023-04-23T22:00:49.153Z,28.70
2023-04-23T22:03:37.402Z,29.70
2023-04-23T22:06:16.672Z,29.50
2023-04-23T22:08:53.719Z,29.90
2023-04-23T22:11:48.876Z,28.40
2023-04-23T22:14:32.521Z,25.00
2023-04-23T22:17:15.617Z,26.00
2023-04-23T22:19:46.180Z,29.10
2023-04-23T22:22:17.274Z,29.30
2023-04-23T22:24:58.553Z,32.30
2023-04-23T22:27:37.068Z,27.80
2023-04-23T22:30:15.863Z,27.70
2023-04-23T22:32:50.117Z,29.90
2023-04-23T22:35:49.726Z,30.50
2023-04-23T22:38:26.536Z,27.40
2023-04-23T22:41:00.202Z,30.20
2023-04-23T22:43:35.989Z,25.70
2023-04-23T22:46:12.655Z,27.20
2023-04-23T22:48:49.826Z,26.00
2023-04-23T22:51:22.183Z,25.10
2023-04-23T22:53:54.531Z,25.40
2023-04-23T22:56:30.677Z,25.70
2023-04-23T22:59:13.691Z,27.90
2023-04-23T23:02:02.526Z,25.30
2023-04-23T23:04:41.829Z,23.20
2023-04-23T23:07:16.608Z,30.20
2023-04-23T23:09:53.653Z,21.20
2023-04-23T23:12:24.556Z,21.00
2023-04-23T23:15:00.168Z,24.50
2023-04-23T23:17:40.991Z,22.90
2023-04-23T23:20:17.504Z,19.30
2023-04-23T23:22:50.555Z,20.40
2023-04-23T23:25:26.082Z,19.40
2023-04-23T23:28:08.102Z,19.30
2023-04-23T23:30:43.730Z,21.40
2023-04-23T23:33:17.507Z,20.40
2023-04-23T23:35:51.940Z,19.90
2023-04-23T23:38:24.062Z,16.50
2023-04-23T23:41:05.074Z,19.20
2023-04-23T23:43:51.779Z,20.80
2023-04-23T23:46:24.387Z,17.90
2023-04-23T23:48:55.401Z,19.40
2023-04-23T23:51:26.196Z,20.60
2023-04-23T23:53:57.003Z,19.10
2023-04-23T23:56:29.992Z,18.00
2023-04-23T23:59:09.766Z,18.10
